sensor_id;sensor_type;location;lat;lon;timestamp;temperature;humidity
14775;DHT22;7479;47.042;15.160;2022-07-29T05:16:18;21.30;99.90
14775;DHT22;7479;47.042;15.160;2022-07-29T05:21:12;21.40;99.90
14775;DHT22;7479;47.042;15.160;2022-07-29T05:26:05;21.60;99.90
14775;DHT22;7479;47.042;15.160;2022-07-29T05:30:59;22.10;99.90
14775;DHT22;7479;47.042;15.160;2022-07-29T05:35:54;22.30;99.90
14775;DHT22;7479;47.042;15.160;2022-07-29T05:40:51;22.40;99.90
14775;DHT22;7479;47.042;15.160;2022-07-29T05:45:45;22.20;99.90
14775;DHT22;7479;47.042;15.160;2022-07-29T06:06:22;22.50;99.90
14775;DHT22;7479;47.042;15.160;2022-07-29T06:11:16;22.60;99.90
14775;DHT22;7479;47.042;15.160;2022-07-29T06:16:11;22.60;99.90
14775;DHT22;7479;47.042;15.160;2022-07-29T06:21:22;22.60;99.90
14775;DHT22;7479;47.042;15.160;2022-07-29T06:26:15;22.60;99.90
14775;DHT22;7479;47.042;15.160;2022-07-29T06:31:09;22.70;99.90
14775;DHT22;7479;47.042;15.160;2022-07-29T06:36:04;22.80;99.90
14775;DHT22;7479;47.042;15.160;2022-07-29T06:41:00;23.00;99.90
14775;DHT22;7479;47.042;15.160;2022-07-29T06:45:59;23.00;99.90
14775;DHT22;7479;47.042;15.160;2022-07-29T06:50:53;23.20;99.90
14775;DHT22;7479;47.042;15.160;2022-07-29T06:55:47;23.30;99.90
14775;DHT22;7479;47.042;15.160;2022-07-29T07:00:42;23.70;99.90
14775;DHT22;7479;47.042;15.160;2022-07-29T07:05:36;23.90;99.90
14775;DHT22;7479;47.042;15.160;2022-07-29T07:10:30;24.00;99.90
14775;DHT22;7479;47.042;15.160;2022-07-29T07:15:24;24.10;99.90
14775;DHT22;7479;47.042;15.160;2022-07-29T07:20:33;24.20;99.90
14775;DHT22;7479;47.042;15.160;2022-07-29T07:25:28;24.40;99.90
14775;DHT22;7479;47.042;15.160;2022-07-29T07:30:21;24.70;99.90
14775;DHT22;7479;47.042;15.160;2022-07-29T07:35:16;24.90;99.90
14775;DHT22;7479;47.042;15.160;2022-07-29T07:40:12;25.10;99.90
14775;DHT22;7479;47.042;15.160;2022-07-29T07:45:10;25.10;99.90
14775;DHT22;7479;47.042;15.160;2022-07-29T07:50:09;25.20;99.90
14775;DHT22;7479;47.042;15.160;2022-07-29T07:55:11;25.40;99.90
14775;DHT22;7479;47.042;15.160;2022-07-29T08:00:09;25.50;99.90
14775;DHT22;7479;47.042;15.160;2022-07-29T08:05:04;25.80;99.90
14775;DHT22;7479;47.042;15.160;2022-07-29T08:10:04;26.30;99.90
14775;DHT22;7479;47.042;15.160;2022-07-29T08:14:59;26.40;99.90
14775;DHT22;7479;47.042;15.160;2022-07-29T08:19:53;26.50;99.90
14775;DHT22;7479;47.042;15.160;2022-07-29T08:24:47;26.50;99.70
14775;DHT22;7479;47.042;15.160;2022-07-29T08:29:47;26.60;99.50
14775;DHT22;7479;47.042;15.160;2022-07-29T08:34:42;27.00;99.00
14775;DHT22;7479;47.042;15.160;2022-07-29T08:39:38;27.10;98.60
14775;DHT22;7479;47.042;15.160;2022-07-29T08:44:33;27.20;98.00
14775;DHT22;7479;47.042;15.160;2022-07-29T08:49:27;27.20;96.80
14775;DHT22;7479;47.042;15.160;2022-07-29T08:54:23;27.30;95.10
14775;DHT22;7479;47.042;15.160;2022-07-29T08:59:19;27.30;94.90
14775;DHT22;7479;47.042;15.160;2022-07-29T09:04:14;27.30;95.90
14775;DHT22;7479;47.042;15.160;2022-07-29T09:09:08;27.10;95.70
14775;DHT22;7479;47.042;15.160;2022-07-29T09:14:03;27.00;96.40
14775;DHT22;7479;47.042;15.160;2022-07-29T09:18:57;26.90;96.80
14775;DHT22;7479;47.042;15.160;2022-07-29T09:24:02;26.80;97.50
14775;DHT22;7479;47.042;15.160;2022-07-29T09:28:57;26.70;97.90
14775;DHT22;7479;47.042;15.160;2022-07-29T09:33:54;26.60;98.40
14775;DHT22;7479;47.042;15.160;2022-07-29T09:38:57;26.60;98.50
14775;DHT22;7479;47.042;15.160;2022-07-29T09:43:55;26.50;99.10
14775;DHT22;7479;47.042;15.160;2022-07-29T09:49:10;26.50;98.90
14775;DHT22;7479;47.042;15.160;2022-07-29T09:54:22;26.50;98.60
14775;DHT22;7479;47.042;15.160;2022-07-29T09:59:20;26.30;99.00
14775;DHT22;7479;47.042;15.160;2022-07-29T10:04:18;26.20;99.00
14775;DHT22;7479;47.042;15.160;2022-07-29T10:09:13;26.20;99.50
14775;DHT22;7479;47.042;15.160;2022-07-29T10:14:13;26.30;99.70
14775;DHT22;7479;47.042;15.160;2022-07-29T10:19:08;26.50;99.30
14775;DHT22;7479;47.042;15.160;2022-07-29T10:24:05;26.90;99.60
14775;DHT22;7479;47.042;15.160;2022-07-29T10:29:06;27.30;98.40
14775;DHT22;7479;47.042;15.160;2022-07-29T10:34:07;27.50;97.20
14775;DHT22;7479;47.042;15.160;2022-07-29T10:39:18;27.70;95.60
14775;DHT22;7479;47.042;15.160;2022-07-29T10:44:17;27.90;95.20
14775;DHT22;7479;47.042;15.160;2022-07-29T10:49:15;27.80;95.40
14775;DHT22;7479;47.042;15.160;2022-07-29T10:54:14;27.80;96.60
14775;DHT22;7479;47.042;15.160;2022-07-29T10:59:24;28.20;94.90
14775;DHT22;7479;47.042;15.160;2022-07-29T11:04:58;28.30;94.40
14775;DHT22;7479;47.042;15.160;2022-07-29T11:15:24;28.50;94.30
14775;DHT22;7479;47.042;15.160;2022-07-29T11:20:33;28.10;93.60
14775;DHT22;7479;47.042;15.160;2022-07-29T11:25:29;27.90;94.10
14775;DHT22;7479;47.042;15.160;2022-07-29T11:30:50;27.80;94.80
14775;DHT22;7479;47.042;15.160;2022-07-29T11:36:07;27.80;95.70
14775;DHT22;7479;47.042;15.160;2022-07-29T11:41:24;27.70;95.30
14775;DHT22;7479;47.042;15.160;2022-07-29T11:51:54;28.00;95.70
14775;DHT22;7479;47.042;15.160;2022-07-29T11:56:57;28.60;94.80
14775;DHT22;7479;47.042;15.160;2022-07-29T12:01:52;29.30;94.20
14775;DHT22;7479;47.042;15.160;2022-07-29T12:07:09;29.40;93.20
14775;DHT22;7479;47.042;15.160;2022-07-29T12:12:26;29.40;93.00
14775;DHT22;7479;47.042;15.160;2022-07-29T12:17:27;29.40;93.30
14775;DHT22;7479;47.042;15.160;2022-07-29T12:22:40;29.40;93.10
14775;DHT22;7479;47.042;15.160;2022-07-29T12:27:38;29.70;92.90
14775;DHT22;7479;47.042;15.160;2022-07-29T12:32:35;29.60;92.10
14775;DHT22;7479;47.042;15.160;2022-07-29T12:37:30;29.40;92.60
14775;DHT22;7479;47.042;15.160;2022-07-29T12:42:35;29.50;92.40
14775;DHT22;7479;47.042;15.160;2022-07-29T12:47:29;29.80;92.40
14775;DHT22;7479;47.042;15.160;2022-07-29T12:52:28;29.90;91.50
14775;DHT22;7479;47.042;15.160;2022-07-29T12:57:22;29.60;91.70
14775;DHT22;7479;47.042;15.160;2022-07-29T13:02:22;29.30;89.80
14775;DHT22;7479;47.042;15.160;2022-07-29T13:07:24;29.30;89.60
14775;DHT22;7479;47.042;15.160;2022-07-29T13:12:39;29.30;90.40
14775;DHT22;7479;47.042;15.160;2022-07-29T13:17:55;29.50;90.30
14775;DHT22;7479;47.042;15.160;2022-07-29T13:22:51;29.80;90.90
14775;DHT22;7479;47.042;15.160;2022-07-29T13:27:45;31.00;87.90
14775;DHT22;7479;47.042;15.160;2022-07-29T13:32:38;32.30;84.70
14775;DHT22;7479;47.042;15.160;2022-07-29T13:37:35;32.50;80.50
14775;DHT22;7479;47.042;15.160;2022-07-29T13:42:31;32.80;78.40
14775;DHT22;7479;47.042;15.160;2022-07-29T13:47:24;32.30;77.00
14775;DHT22;7479;47.042;15.160;2022-07-29T13:52:24;31.70;80.40
14775;DHT22;7479;47.042;15.160;2022-07-29T13:57:19;31.40;81.40
14775;DHT22;7479;47.042;15.160;2022-07-29T14:02:12;31.50;80.10
14775;DHT22;7479;47.042;15.160;2022-07-29T14:07:09;32.00;80.10
14775;DHT22;7479;47.042;15.160;2022-07-29T14:12:10;31.90;80.20
14775;DHT22;7479;47.042;15.160;2022-07-29T14:17:07;32.40;76.40
14775;DHT22;7479;47.042;15.160;2022-07-29T14:22:03;32.90;72.90
14775;DHT22;7479;47.042;15.160;2022-07-29T14:27:00;33.10;74.70
14775;DHT22;7479;47.042;15.160;2022-07-29T14:31:55;33.50;63.30
14775;DHT22;7479;47.042;15.160;2022-07-29T14:36:51;34.00;65.70
14775;DHT22;7479;47.042;15.160;2022-07-29T14:41:47;34.00;67.90
14775;DHT22;7479;47.042;15.160;2022-07-29T14:46:42;33.10;69.30
14775;DHT22;7479;47.042;15.160;2022-07-29T14:51:40;33.00;69.00
14775;DHT22;7479;47.042;15.160;2022-07-29T14:56:36;33.50;68.70
14775;DHT22;7479;47.042;15.160;2022-07-29T15:01:38;34.00;68.30
14775;DHT22;7479;47.042;15.160;2022-07-29T15:06:31;34.60;65.20
14775;DHT22;7479;47.042;15.160;2022-07-29T15:11:26;35.10;65.60
14775;DHT22;7479;47.042;15.160;2022-07-29T15:16:21;35.00;64.10
14775;DHT22;7479;47.042;15.160;2022-07-29T15:21:15;35.10;62.50
14775;DHT22;7479;47.042;15.160;2022-07-29T15:26:08;35.10;61.10
14775;DHT22;7479;47.042;15.160;2022-07-29T15:31:02;35.00;60.10
14775;DHT22;7479;47.042;15.160;2022-07-29T15:35:58;34.70;62.70
14775;DHT22;7479;47.042;15.160;2022-07-29T15:40:52;34.40;61.70
14775;DHT22;7479;47.042;15.160;2022-07-29T15:45:45;34.00;63.10
14775;DHT22;7479;47.042;15.160;2022-07-29T15:50:53;33.80;63.00
14775;DHT22;7479;47.042;15.160;2022-07-29T15:55:49;33.20;65.10
14775;DHT22;7479;47.042;15.160;2022-07-29T16:00:42;32.80;65.60
14775;DHT22;7479;47.042;15.160;2022-07-29T16:05:36;32.30;67.00
14775;DHT22;7479;47.042;15.160;2022-07-29T16:10:30;32.40;66.20
14775;DHT22;7479;47.042;15.160;2022-07-29T16:15:25;33.30;66.90
14775;DHT22;7479;47.042;15.160;2022-07-29T16:20:19;33.80;65.60
14775;DHT22;7479;47.042;15.160;2022-07-29T16:25:13;33.90;64.10
14775;DHT22;7479;47.042;15.160;2022-07-29T16:30:08;34.10;64.00
14775;DHT22;7479;47.042;15.160;2022-07-29T16:35:04;33.80;63.60
14775;DHT22;7479;47.042;15.160;2022-07-29T16:39:58;33.60;64.60
14775;DHT22;7479;47.042;15.160;2022-07-29T16:44:52;33.70;63.30
14775;DHT22;7479;47.042;15.160;2022-07-29T16:49:46;33.50;64.60
14775;DHT22;7479;47.042;15.160;2022-07-29T16:54:41;32.60;66.70
14775;DHT22;7479;47.042;15.160;2022-07-29T16:59:35;31.80;67.90
14775;DHT22;7479;47.042;15.160;2022-07-29T17:04:34;31.20;70.10
14775;DHT22;7479;47.042;15.160;2022-07-29T17:09:28;30.60;71.90
14775;DHT22;7479;47.042;15.160;2022-07-29T17:14:27;30.30;73.50
14775;DHT22;7479;47.042;15.160;2022-07-29T17:19:22;30.00;78.60
14775;DHT22;7479;47.042;15.160;2022-07-29T17:24:15;29.60;81.00
14775;DHT22;7479;47.042;15.160;2022-07-29T17:29:09;29.50;82.30
14775;DHT22;7479;47.042;15.160;2022-07-29T17:34:05;29.30;82.70
14775;DHT22;7479;47.042;15.160;2022-07-29T17:39:03;29.00;84.00
14775;DHT22;7479;47.042;15.160;2022-07-29T17:43:57;28.80;86.30
14775;DHT22;7479;47.042;15.160;2022-07-29T17:48:50;28.40;87.00
14775;DHT22;7479;47.042;15.160;2022-07-29T17:53:45;27.90;89.50
14775;DHT22;7479;47.042;15.160;2022-07-29T17:58:39;27.80;90.90
14775;DHT22;7479;47.042;15.160;2022-07-29T18:03:33;27.70;91.40
14775;DHT22;7479;47.042;15.160;2022-07-29T18:08:28;27.50;92.10
14775;DHT22;7479;47.042;15.160;2022-07-29T18:13:23;27.40;92.60
14775;DHT22;7479;47.042;15.160;2022-07-29T18:18:18;27.20;93.60
14775;DHT22;7479;47.042;15.160;2022-07-29T18:23:12;26.90;94.30
14775;DHT22;7479;47.042;15.160;2022-07-29T18:28:06;26.70;95.10
14775;DHT22;7479;47.042;15.160;2022-07-29T18:33:02;26.70;95.80
14775;DHT22;7479;47.042;15.160;2022-07-29T18:38:12;26.60;96.30
14775;DHT22;7479;47.042;15.160;2022-07-29T18:43:06;26.60;96.60
14775;DHT22;7479;47.042;15.160;2022-07-29T18:48:01;26.20;97.30
14775;DHT22;7479;47.042;15.160;2022-07-29T18:52:55;26.00;97.90
14775;DHT22;7479;47.042;15.160;2022-07-29T18:57:50;25.90;98.10
14775;DHT22;7479;47.042;15.160;2022-07-29T19:02:47;25.80;98.70
14775;DHT22;7479;47.042;15.160;2022-07-29T19:07:43;25.70;99.00
14775;DHT22;7479;47.042;15.160;2022-07-29T19:12:37;25.70;99.30
14775;DHT22;7479;47.042;15.160;2022-07-29T19:17:31;25.70;99.40
14775;DHT22;7479;47.042;15.160;2022-07-29T19:22:25;25.60;99.80
14775;DHT22;7479;47.042;15.160;2022-07-29T19:27:20;25.50;99.90
14775;DHT22;7479;47.042;15.160;2022-07-29T19:32:14;25.40;99.90
14775;DHT22;7479;47.042;15.160;2022-07-29T19:37:16;25.10;99.90
14775;DHT22;7479;47.042;15.160;2022-07-29T19:42:09;24.90;99.90
14775;DHT22;7479;47.042;15.160;2022-07-29T19:47:05;24.70;99.90
14775;DHT22;7479;47.042;15.160;2022-07-29T19:51:59;24.50;99.90
14775;DHT22;7479;47.042;15.160;2022-07-29T19:56:52;24.30;99.90
14775;DHT22;7479;47.042;15.160;2022-07-29T20:01:46;24.10;99.90
14775;DHT22;7479;47.042;15.160;2022-07-29T20:06:42;23.80;99.90
14775;DHT22;7479;47.042;15.160;2022-07-29T20:11:35;23.40;99.90
14775;DHT22;7479;47.042;15.160;2022-07-29T20:16:30;23.30;99.90
14775;DHT22;7479;47.042;15.160;2022-07-29T20:21:24;23.20;99.90
14775;DHT22;7479;47.042;15.160;2022-07-29T20:26:20;23.10;99.90
14775;DHT22;7479;47.042;15.160;2022-07-29T20:31:15;23.00;99.90
14775;DHT22;7479;47.042;15.160;2022-07-29T20:36:10;22.90;99.90
